Time;durP1;ratioP1;P1;durP2;ratioP2;P2;SDS_P1;SDS_P2;PMS_P1;PMS_P2;Temp;Humidity;BMP_temperature;BMP_pressure;BME280_temperature;BME280_humidity;BME280_pressure;Samples;Min_cycle;Max_cycle;Signal;HPM_P1;HPM_P2
2023/03/10 00:01:12;;;;;;;9.35;6.97;;;;;;;21.19;49.39;99844.16;5033944;28;20048;-52
2023/03/10 00:03:40;;;;;;;8.95;6.10;;;;;;;21.19;49.36;99854.09;5033863;28;20053;-49
2023/03/10 00:06:09;;;;;;;9.65;6.65;;;;;;;21.18;49.41;99855.91;5033737;28;20068;-50
2023/03/10 00:08:37;;;;;;;7.60;5.10;;;;;;;21.18;49.45;99857.75;5033742;28;20049;-50
2023/03/10 00:11:05;;;;;;;6.75;4.72;;;;;;;21.17;49.46;99859.63;5033961;28;20052;-51
2023/03/10 00:13:32;;;;;;;8.48;5.32;;;;;;;21.16;49.38;99849.03;5033610;28;20045;-51
2023/03/10 00:16:00;;;;;;;7.10;5.47;;;;;;;21.17;49.37;99850.72;5032795;28;20057;-49
2023/03/10 00:18:28;;;;;;;8.65;6.30;;;;;;;21.17;49.31;99858.78;5033576;28;20041;-52
2023/03/10 00:20:55;;;;;;;10.20;6.10;;;;;;;21.15;49.36;99853.56;5034019;28;20054;-51
2023/03/10 00:23:22;;;;;;;10.05;5.85;;;;;;;21.15;49.39;99858.97;5033359;28;20041;-52
2023/03/10 00:25:58;;;;;;;7.82;5.93;;;;;;;21.15;49.30;99861.66;5033548;28;20060;-48
2023/03/10 00:28:26;;;;;;;8.07;5.78;;;;;;;21.15;49.26;99866.19;5051570;28;20045;-48
2023/03/10 00:31:02;;;;;;;5.75;5.10;;;;;;;21.14;49.16;99859.94;5053514;28;20052;-49
2023/03/10 00:33:31;;;;;;;7.75;6.00;;;;;;;21.15;49.22;99860.81;5053246;28;20045;-50
2023/03/10 00:36:11;;;;;;;8.95;5.78;;;;;;;21.13;49.35;99860.97;5053015;28;20494;-45
2023/03/10 00:38:39;;;;;;;7.97;5.68;;;;;;;21.15;49.07;99848.19;5051586;28;20063;-50
2023/03/10 00:41:12;;;;;;;6.50;5.32;;;;;;;21.14;49.19;99846.50;5053461;28;20395;-45
2023/03/10 00:43:40;;;;;;;8.48;5.40;;;;;;;21.13;49.18;99838.59;5053076;28;20479;-45
2023/03/10 00:46:07;;;;;;;8.45;5.38;;;;;;;21.13;49.17;99839.44;5051668;28;20053;-46
2023/03/10 00:48:35;;;;;;;9.50;5.65;;;;;;;21.12;49.12;99835.06;5053341;28;20068;-50
2023/03/10 00:51:04;;;;;;;8.77;5.65;;;;;;;21.13;49.05;99836.75;5052855;28;20057;-48
2023/03/10 00:53:34;;;;;;;7.80;5.72;;;;;;;21.12;48.98;99832.38;5046366;28;20053;-50
2023/03/10 00:56:07;;;;;;;7.25;5.13;;;;;;;21.11;49.05;99830.69;5029849;28;20052;-48
2023/03/10 00:58:35;;;;;;;7.85;5.40;;;;;;;21.10;49.13;99834.38;5034348;28;20056;-48
2023/03/10 01:01:04;;;;;;;7.75;5.80;;;;;;;21.11;48.93;99819.09;5033105;28;20045;-45
2023/03/10 01:03:32;;;;;;;7.45;5.22;;;;;;;21.10;48.97;99810.16;5031700;28;20049;-46
2023/03/10 01:05:59;;;;;;;5.68;4.90;;;;;;;21.10;48.94;99810.16;5033387;28;20068;-48
2023/03/10 01:08:26;;;;;;;8.25;5.25;;;;;;;21.09;48.97;99797.72;5033109;28;20045;-49
2023/03/10 01:10:53;;;;;;;9.05;5.93;;;;;;;21.09;48.92;99789.66;5031901;28;20054;-46
2023/03/10 01:13:21;;;;;;;8.02;5.30;;;;;;;21.09;48.87;99781.56;5039718;28;20044;-46
2023/03/10 01:15:49;;;;;;;8.63;5.53;;;;;;;21.08;48.78;99777.22;5052803;28;20064;-48
2023/03/10 01:18:18;;;;;;;7.05;5.30;;;;;;;21.09;48.93;99776.19;5052770;28;20388;-49
2023/03/10 01:20:46;;;;;;;7.95;6.25;;;;;;;21.10;48.88;99777.03;5052198;28;20064;-50
2023/03/10 01:23:19;;;;;;;7.68;5.28;;;;;;;21.08;48.68;99771.81;5052524;28;20427;-47
2023/03/10 01:25:48;;;;;;;9.00;5.53;;;;;;;21.08;48.88;99766.44;5052861;28;20053;-49
2023/03/10 01:28:18;;;;;;;7.30;5.13;;;;;;;21.09;48.89;99767.28;5051679;28;20522;-47
2023/03/10 01:30:47;;;;;;;6.72;5.45;;;;;;;21.08;48.82;99755.69;5051886;28;20049;-46
2023/03/10 01:33:16;;;;;;;8.50;5.13;;;;;;;21.07;48.73;99740.53;5052529;28;20041;-48
2023/03/10 01:35:44;;;;;;;8.90;5.15;;;;;;;21.08;48.80;99744.06;5052879;28;20486;-48
2023/03/10 01:38:11;;;;;;;6.53;5.35;;;;;;;21.08;48.74;99738.69;5051964;28;20045;-47
2023/03/10 01:40:39;;;;;;;9.68;5.97;;;;;;;21.08;48.61;99739.53;5052752;28;20049;-49
2023/03/10 01:43:19;;;;;;;8.68;5.65;;;;;;;21.08;48.71;99734.16;5051506;28;20041;-46
2023/03/10 01:45:47;;;;;;;6.18;4.82;;;;;;;21.07;48.67;99721.72;5051311;28;20415;-49
2023/03/10 01:48:16;;;;;;;7.50;5.20;;;;;;;21.07;48.81;99718.19;5051068;28;20056;-46
2023/03/10 01:50:47;;;;;;;8.80;5.72;;;;;;;21.08;48.61;99719.84;5053226;28;20059;-49
2023/03/10 01:53:17;;;;;;;9.77;5.88;;;;;;;21.07;48.64;99723.56;5055897;28;20049;-49
2023/03/10 01:55:49;;;;;;;8.90;5.78;;;;;;;21.07;48.43;99724.41;5051221;28;20049;-49
2023/03/10 01:58:19;;;;;;;7.07;5.38;;;;;;;21.06;48.67;99708.41;5055951;28;20561;-48
2023/03/10 02:00:48;;;;;;;7.82;5.40;;;;;;;21.07;48.53;99710.09;5055035;28;20395;-45
2023/03/10 02:03:27;;;;;;;8.23;5.25;;;;;;;21.06;48.43;99708.41;5056315;28;20056;-47
2023/03/10 02:05:58;;;;;;;6.13;4.97;;;;;;;21.06;48.53;99720.00;5054524;28;20052;-46
2023/03/10 02:08:32;;;;;;;7.70;5.32;;;;;;;21.05;48.44;99715.66;5055719;28;20052;-46
2023/03/10 02:11:00;;;;;;;7.70;5.22;;;;;;;21.05;48.39;99706.72;5055114;28;20048;-49
2023/03/10 02:13:28;;;;;;;7.28;5.15;;;;;;;21.05;48.34;99699.50;5055669;28;20037;-45
2023/03/10 02:15:55;;;;;;;6.15;4.85;;;;;;;21.05;48.35;99696.81;5055666;28;20490;-47
2023/03/10 02:18:24;;;;;;;7.03;5.10;;;;;;;21.04;48.37;99697.00;5056110;28;20060;-46
2023/03/10 02:21:30;;;;;;;6.75;5.32;;;;;;;21.03;48.40;99696.16;5055399;28;20053;-48
2023/03/10 02:23:58;;;;;;;8.15;5.13;;;;;;;21.04;48.35;99697.00;5055227;28;20419;-50
2023/03/10 02:26:36;;;;;;;7.18;5.47;;;;;;;21.04;48.32;99700.50;5055102;28;20075;-47
2023/03/10 02:29:07;;;;;;;8.55;5.82;;;;;;;21.03;48.47;99684.56;5055292;28;20053;-49
2023/03/10 02:31:36;;;;;;;7.32;5.05;;;;;;;21.03;48.30;99682.69;5054580;28;20056;-46
2023/03/10 02:34:05;;;;;;;6.85;5.65;;;;;;;21.03;48.28;99677.31;5053794;28;20415;-49
2023/03/10 02:36:33;;;;;;;7.57;5.35;;;;;;;21.03;48.26;99681.88;5054249;28;20055;-49
2023/03/10 02:39:00;;;;;;;7.00;4.47;;;;;;;21.01;48.41;99679.31;5054602;28;20049;-50
2023/03/10 02:41:32;;;;;;;6.82;4.60;;;;;;;21.00;48.23;99666.88;5054413;28;20049;-47
2023/03/10 02:44:03;;;;;;;7.45;4.93;;;;;;;21.00;48.20;99664.19;5053767;28;20415;-48
2023/03/10 02:46:30;;;;;;;9.45;5.95;;;;;;;21.01;48.31;99662.34;5054528;28;20060;-50
2023/03/10 02:49:03;;;;;;;7.50;5.40;;;;;;;21.00;48.23;99656.13;5055068;28;20375;-46
2023/03/10 02:51:40;;;;;;;7.03;5.10;;;;;;;20.99;48.19;99649.06;5053989;28;20064;-47
2023/03/10 02:54:12;;;;;;;8.05;5.63;;;;;;;21.00;48.18;99639.97;5054151;28;20060;-46
2023/03/10 02:56:41;;;;;;;7.45;5.40;;;;;;;21.00;48.17;99634.59;5039232;28;20049;-45
2023/03/10 02:59:11;;;;;;;6.30;4.97;;;;;;;20.99;48.19;99623.00;5033772;28;20050;-46
2023/03/10 03:01:44;;;;;;;7.72;4.95;;;;;;;20.98;48.20;99637.47;5033439;28;20053;-47
2023/03/10 03:04:11;;;;;;;6.90;4.90;;;;;;;21.00;48.01;99642.69;5034094;28;20057;-45
2023/03/10 03:06:39;;;;;;;8.10;5.88;;;;;;;20.99;47.92;99644.53;5033849;28;20061;-47
2023/03/10 03:09:07;;;;;;;6.45;4.90;;;;;;;20.99;47.89;99641.84;5033532;28;20049;-48
2023/03/10 03:11:35;;;;;;;7.40;4.70;;;;;;;20.98;47.80;99632.09;5034107;28;20053;-47
2023/03/10 03:14:06;;;;;;;7.28;4.70;;;;;;;20.98;48.02;99637.47;5035090;28;20072;-46
2023/03/10 03:16:34;;;;;;;7.25;5.15;;;;;;;20.99;48.02;99630.25;5052313;28;20064;-47
2023/03/10 03:19:05;;;;;;;6.80;5.03;;;;;;;21.00;47.89;99626.53;5053130;28;20053;-48
2023/03/10 03:21:32;;;;;;;7.55;5.45;;;;;;;20.98;47.80;99632.09;5053791;28;20376;-44
2023/03/10 03:23:59;;;;;;;5.97;5.05;;;;;;;20.98;47.75;99623.16;5054215;28;20479;-47
2023/03/10 03:26:27;;;;;;;6.18;4.70;;;;;;;20.98;47.75;99621.34;5054724;28;20364;-49
2023/03/10 03:29:00;;;;;;;6.93;5.05;;;;;;;20.97;47.81;99608.88;5052933;28;20079;-48
2023/03/10 03:31:32;;;;;;;6.95;5.00;;;;;;;20.97;47.71;99598.09;5052916;28;20057;-47
2023/03/10 03:34:16;;;;;;;6.05;4.88;;;;;;;20.96;47.83;99591.06;5052877;28;20055;-47
2023/03/10 03:36:46;;;;;;;6.95;4.80;;;;;;;20.96;47.81;99585.66;5052816;28;20053;-50
2023/03/10 03:39:18;;;;;;;5.90;5.00;;;;;;;20.96;47.63;99582.16;5053002;28;20075;-49
2023/03/10 03:41:52;;;;;;;6.55;5.25;;;;;;;20.96;47.68;99584.84;5052915;28;20048;-48
2023/03/10 03:44:20;;;;;;;6.03;4.93;;;;;;;20.95;47.73;99584.00;5053301;28;20049;-46
2023/03/10 03:46:49;;;;;;;5.65;4.78;;;;;;;20.96;47.72;99584.84;5052887;28;20500;-49
2023/03/10 03:49:17;;;;;;;7.53;5.13;;;;;;;20.95;47.67;99584.00;5052823;28;20052;-48
2023/03/10 03:51:45;;;;;;;7.75;4.68;;;;;;;20.95;47.61;99592.06;5052786;28;20080;-47
2023/03/10 03:54:12;;;;;;;8.75;5.63;;;;;;;20.96;47.47;99590.22;5052898;28;20048;-49
2023/03/10 03:56:40;;;;;;;7.50;6.32;;;;;;;20.94;47.67;99574.25;5035447;28;20047;-46
2023/03/10 03:59:10;;;;;;;8.07;5.38;;;;;;;20.95;47.44;99575.09;5051963;28;20060;-51
2023/03/10 04:01:38;;;;;;;6.93;4.97;;;;;;;20.96;47.34;99591.06;5052029;28;20396;-47
2023/03/10 04:04:06;;;;;;;6.18;4.63;;;;;;;20.95;47.31;99581.31;5052577;28;20055;-49
2023/03/10 04:06:34;;;;;;;6.03;4.90;;;;;;;20.97;47.41;99564.97;5052895;28;20063;-48
2023/03/10 04:09:01;;;;;;;7.82;5.30;;;;;;;20.97;47.42;99554.22;5052483;28;20056;-46
2023/03/10 04:11:31;;;;;;;8.73;5.97;;;;;;;20.97;47.55;99555.06;5051753;28;20056;-46
2023/03/10 04:13:59;;;;;;;6.93;5.15;;;;;;;20.96;47.64;99566.84;5051452;28;20049;-45
2023/03/10 04:16:27;;;;;;;9.98;5.47;;;;;;;20.97;47.61;99565.81;5051516;28;20053;-46
2023/03/10 04:18:55;;;;;;;6.10;5.47;;;;;;;20.97;47.50;99562.28;5051443;28;20053;-47
2023/03/10 04:21:23;;;;;;;9.80;6.47;;;;;;;20.96;47.33;99555.25;5052759;28;20055;-46
2023/03/10 04:23:53;;;;;;;9.27;6.07;;;;;;;20.94;47.33;99555.44;5051399;28;20060;-47
2023/03/10 04:26:25;;;;;;;8.50;5.88;;;;;;;20.95;47.47;99564.34;5051807;28;20143;-49
2023/03/10 04:28:52;;;;;;;6.40;5.07;;;;;;;20.94;47.64;99560.81;5051991;28;20061;-47
2023/03/10 04:31:20;;;;;;;9.60;6.05;;;;;;;20.94;47.41;99549.19;5052023;28;20056;-47
2023/03/10 04:33:49;;;;;;;6.35;5.00;;;;;;;20.94;47.68;99539.28;5051428;28;20056;-49
2023/03/10 04:36:19;;;;;;;7.47;5.25;;;;;;;20.94;47.50;99525.84;5052465;28;20049;-49
2023/03/10 04:38:50;;;;;;;6.35;5.47;;;;;;;20.93;47.31;99508.00;5052171;28;20049;-48
2023/03/10 04:41:18;;;;;;;6.93;5.75;;;;;;;20.92;47.17;99492.03;5051547;28;20048;-46
2023/03/10 04:43:46;;;;;;;8.07;5.43;;;;;;;20.93;47.27;99499.09;5051926;28;20044;-47
2023/03/10 04:46:15;;;;;;;7.75;5.90;;;;;;;20.93;47.11;99493.69;5051648;28;20060;-48
2023/03/10 04:48:43;;;;;;;7.05;5.55;;;;;;;20.93;46.94;99499.09;5052197;28;20068;-49
2023/03/10 04:51:11;;;;;;;7.85;4.97;;;;;;;20.92;47.02;99492.03;5051944;28;20513;-46
2023/03/10 04:53:50;;;;;;;7.30;5.65;;;;;;;20.91;47.09;99499.28;5052199;28;20052;-47
2023/03/10 04:56:18;;;;;;;6.30;5.50;;;;;;;20.92;47.05;99505.50;5052148;28;20053;-46
2023/03/10 04:58:46;;;;;;;7.85;5.70;;;;;;;20.91;46.88;99496.59;5034887;28;20376;-48
2023/03/10 05:01:14;;;;;;;6.38;5.35;;;;;;;20.90;46.99;99489.53;5032780;28;20053;-51
2023/03/10 05:03:46;;;;;;;7.82;5.38;;;;;;;20.90;46.91;99467.16;5031989;28;20518;-47
2023/03/10 05:06:20;;;;;;;7.53;5.80;;;;;;;20.91;47.01;99471.53;5031681;28;20053;-46
2023/03/10 05:09:13;;;;;;;6.05;5.22;;;;;;;20.90;47.06;99472.53;5033682;28;20057;-49
2023/03/10 05:11:41;;;;;;;6.20;5.13;;;;;;;20.89;47.22;99455.56;5033196;28;20053;-49
2023/03/10 05:14:10;;;;;;;6.50;5.20;;;;;;;20.90;47.19;99434.88;5032519;28;20408;-48
2023/03/10 05:16:37;;;;;;;6.72;4.80;;;;;;;20.89;47.13;99422.44;5043549;28;20045;-47
2023/03/10 05:19:06;;;;;;;6.95;5.03;;;;;;;20.89;47.13;99398.22;5051574;28;20522;-48
2023/03/10 05:21:33;;;;;;;5.95;4.90;;;;;;;20.89;47.11;99392.84;5051209;28;20048;-47
2023/03/10 05:24:03;;;;;;;8.93;5.53;;;;;;;20.89;47.16;99395.53;5051162;28;20061;-47
2023/03/10 05:26:30;;;;;;;6.28;5.28;;;;;;;20.88;47.22;99399.25;5055008;28;20045;-47
2023/03/10 05:29:01;;;;;;;6.72;5.55;;;;;;;20.89;47.16;99411.69;5055121;28;20056;-48
2023/03/10 05:31:43;;;;;;;7.40;5.55;;;;;;;20.87;47.01;99414.56;5055183;28;20060;-47
2023/03/10 05:34:16;;;;;;;7.38;5.43;;;;;;;20.87;47.10;99414.56;5054667;28;20522;-48
2023/03/10 05:36:45;;;;;;;6.57;5.05;;;;;;;20.86;47.03;99420.94;5055637;28;20491;-46
2023/03/10 05:39:15;;;;;;;6.82;5.28;;;;;;;20.88;47.08;99426.16;5054721;28;20060;-51
2023/03/10 05:41:46;;;;;;;6.40;5.68;;;;;;;20.87;47.00;99411.88;5055259;28;20053;-47
2023/03/10 05:44:15;;;;;;;7.82;5.85;;;;;;;20.87;46.89;99403.78;5056317;28;20056;-49
2023/03/10 05:46:43;;;;;;;8.98;5.75;;;;;;;20.87;47.02;99394.88;5055038;28;20057;-51
2023/03/10 05:49:11;;;;;;;8.32;6.10;;;;;;;20.86;46.97;99388.66;5054585;28;20056;-51
2023/03/10 05:51:38;;;;;;;7.32;5.00;;;;;;;20.87;47.09;99397.59;5054845;28;20048;-49
2023/03/10 05:54:08;;;;;;;7.70;5.82;;;;;;;20.87;47.13;99392.19;5054351;28;20049;-48
2023/03/10 05:56:36;;;;;;;6.78;4.78;;;;;;;20.85;46.89;99386.97;5054943;28;20049;-52
2023/03/10 05:59:05;;;;;;;7.20;5.60;;;;;;;20.85;46.95;99381.59;5044029;28;20050;-47
2023/03/10 06:01:36;;;;;;;8.40;5.47;;;;;;;20.85;46.84;99378.06;5051699;28;20064;-50
2023/03/10 06:04:03;;;;;;;8.88;5.57;;;;;;;20.85;46.71;99357.38;5055821;28;20045;-47
2023/03/10 06:06:31;;;;;;;6.32;5.03;;;;;;;20.85;46.80;99352.00;5055831;28;20045;-49
2023/03/10 06:08:59;;;;;;;7.07;5.53;;;;;;;20.85;46.88;99361.94;5056042;28;20056;-51
2023/03/10 06:11:27;;;;;;;8.55;5.47;;;;;;;20.85;46.81;99359.25;5055754;28;20045;-50
2023/03/10 06:13:54;;;;;;;8.45;5.75;;;;;;;20.85;46.74;99372.69;5055518;28;20045;-46
2023/03/10 06:16:22;;;;;;;7.82;5.00;;;;;;;20.85;46.76;99386.16;5056052;28;20494;-47
2023/03/10 06:18:53;;;;;;;11.10;5.45;;;;;;;20.84;46.80;99376.41;5055477;28;20052;-48
2023/03/10 06:21:21;;;;;;;6.72;5.45;;;;;;;20.85;46.84;99365.47;5055844;28;20053;-45
2023/03/10 06:23:48;;;;;;;8.50;6.13;;;;;;;20.84;46.72;99355.72;5055076;28;20045;-46
2023/03/10 06:26:17;;;;;;;5.97;5.05;;;;;;;20.84;46.72;99344.13;5055354;28;20049;-49
2023/03/10 06:28:46;;;;;;;7.38;5.70;;;;;;;20.85;46.81;99348.50;5055904;28;20052;-48
2023/03/10 06:31:23;;;;;;;6.50;5.10;;;;;;;20.84;46.74;99350.34;5055139;28;20041;-49
2023/03/10 06:33:50;;;;;;;5.65;4.97;;;;;;;20.84;46.90;99366.47;5055302;28;20402;-46
2023/03/10 06:36:18;;;;;;;8.55;5.47;;;;;;;20.84;46.86;99366.47;5054867;28;20072;-47
2023/03/10 06:38:46;;;;;;;6.35;5.50;;;;;;;20.85;46.86;99361.94;5054684;28;20064;-49
2023/03/10 06:41:15;;;;;;;6.93;5.55;;;;;;;20.84;46.74;99352.19;5055193;28;20056;-47
2023/03/10 06:43:42;;;;;;;8.48;5.55;;;;;;;20.85;46.85;99348.50;5055571;28;20048;-48
2023/03/10 06:46:11;;;;;;;6.40;5.20;;;;;;;20.85;46.84;99346.63;5055137;28;20041;-47
2023/03/10 06:48:40;;;;;;;8.00;5.95;;;;;;;20.84;46.59;99374.56;5054918;28;20051;-51
2023/03/10 06:51:15;;;;;;;7.10;5.85;;;;;;;20.83;46.67;99375.56;5055245;28;20048;-46
2023/03/10 06:53:42;;;;;;;7.32;5.70;;;;;;;20.84;46.72;99374.56;5055127;28;20053;-48
2023/03/10 06:56:15;;;;;;;7.25;5.40;;;;;;;20.84;46.82;99371.03;5054788;28;20052;-48
2023/03/10 06:58:43;;;;;;;;;;;;;;;20.84;46.66;99376.41;5055682;28;20045;-47
2023/03/10 07:01:28;;;;;;;7.38;5.15;;;;;;;20.84;46.66;99379.09;5034573;28;19920;-45
2023/03/10 07:03:56;;;;;;;7.03;5.80;;;;;;;20.84;46.86;99376.41;5034721;28;20052;-48
2023/03/10 07:06:24;;;;;;;5.78;4.78;;;;;;;20.82;46.91;99363.13;5034752;28;20231;-46
2023/03/10 07:08:53;;;;;;;7.05;5.65;;;;;;;20.84;46.83;99365.66;5034995;28;20049;-45
2023/03/10 07:11:21;;;;;;;6.50;5.22;;;;;;;20.83;46.97;99372.06;5034674;28;20045;-49
2023/03/10 07:13:49;;;;;;;7.82;6.03;;;;;;;20.82;46.86;99373.88;5034683;28;20053;-46
2023/03/10 07:16:17;;;;;;;8.05;6.22;;;;;;;20.82;47.05;99379.25;5035977;28;20068;-46
2023/03/10 07:18:44;;;;;;;7.60;5.38;;;;;;;20.82;46.92;99368.50;5054500;28;20048;-48
2023/03/10 07:21:15;;;;;;;6.70;5.50;;;;;;;20.83;46.98;99355.91;5054462;28;20056;-48
2023/03/10 07:23:43;;;;;;;5.90;4.90;;;;;;;20.82;47.08;99356.91;5054184;28;20064;-47
2023/03/10 07:26:13;;;;;;;6.97;5.50;;;;;;;20.82;47.07;99340.75;5054692;28;20052;-48
2023/03/10 07:28:40;;;;;;;6.10;4.90;;;;;;;20.82;46.99;99338.06;5054565;28;20044;-50
2023/03/10 07:31:10;;;;;;;7.10;5.10;;;;;;;20.82;47.10;99324.63;5054125;28;20049;-53
2023/03/10 07:33:38;;;;;;;9.73;5.90;;;;;;;20.83;47.07;99337.09;5053176;28;20056;-47
2023/03/10 07:36:09;;;;;;;7.22;5.57;;;;;;;20.82;47.15;99338.91;5053985;28;20033;-48
2023/03/10 07:38:36;;;;;;;7.63;5.22;;;;;;;20.83;47.18;99339.78;5054018;28;20044;-47
2023/03/10 07:41:08;;;;;;;7.47;5.40;;;;;;;20.82;47.28;99336.22;5053929;28;20052;-47
2023/03/10 07:43:36;;;;;;;9.82;6.63;;;;;;;20.83;46.95;99329.00;5054431;28;20049;-50
2023/03/10 07:46:10;;;;;;;7.18;5.63;;;;;;;20.82;46.75;99317.38;5054358;28;20460;-47
2023/03/10 07:48:38;;;;;;;7.57;5.28;;;;;;;20.83;46.98;99307.50;5053585;28;20052;-46
2023/03/10 07:51:06;;;;;;;7.00;5.50;;;;;;;20.82;47.06;99322.78;5054060;28;20045;-49
2023/03/10 07:53:34;;;;;;;6.95;5.20;;;;;;;20.84;47.26;99323.44;5053558;28;20063;-47
2023/03/10 07:56:06;;;;;;;7.97;5.88;;;;;;;20.83;47.55;99320.94;5053567;28;20044;-46
2023/03/10 07:58:34;;;;;;;9.63;5.72;;;;;;;20.85;47.61;99313.53;5053849;28;20060;-47
2023/03/10 08:01:02;;;;;;;6.68;4.50;;;;;;;20.86;47.72;99320.56;5052840;28;20051;-47
2023/03/10 08:03:29;;;;;;;7.47;6.22;;;;;;;20.86;47.46;99310.63;5053068;28;20056;-50
2023/03/10 08:05:58;;;;;;;8.98;5.25;;;;;;;20.87;47.59;99306.13;5052461;28;20045;-49
2023/03/10 08:08:26;;;;;;;9.13;5.60;;;;;;;20.86;47.56;99313.34;5052533;28;20399;-48
2023/03/10 08:11:09;;;;;;;8.13;5.30;;;;;;;20.87;47.63;99309.66;5052900;28;20045;-50
2023/03/10 08:13:37;;;;;;;9.93;5.55;;;;;;;20.87;47.70;99312.34;5052905;28;20053;-50
2023/03/10 08:16:06;;;;;;;10.13;6.20;;;;;;;20.87;47.75;99300.75;5053277;28;20059;-52
2023/03/10 08:18:33;;;;;;;7.47;5.28;;;;;;;20.87;47.75;99295.38;5052960;28;20380;-49
2023/03/10 08:21:05;;;;;;;6.25;4.90;;;;;;;20.87;47.75;99306.97;5053119;28;20049;-49
2023/03/10 08:23:34;;;;;;;9.23;5.85;;;;;;;20.89;47.95;99306.78;5053240;28;20052;-49
2023/03/10 08:26:09;;;;;;;10.65;5.72;;;;;;;20.89;47.81;99291.47;5053187;28;20037;-49
2023/03/10 08:28:37;;;;;;;6.97;4.80;;;;;;;20.88;47.75;99281.72;5052783;28;20506;-50
2023/03/10 08:31:10;;;;;;;7.80;4.90;;;;;;;20.89;47.70;99277.19;5053062;28;20234;-50
2023/03/10 08:33:39;;;;;;;7.60;5.70;;;;;;;20.90;47.79;99268.09;5052852;28;20403;-48
2023/03/10 08:36:11;;;;;;;8.50;5.45;;;;;;;20.91;47.86;99272.47;5051470;28;20047;-48
2023/03/10 08:38:39;;;;;;;6.57;5.28;;;;;;;20.92;47.83;99271.44;5051458;28;20511;-49
2023/03/10 08:41:19;;;;;;;6.45;4.85;;;;;;;20.92;47.88;99260.69;5052808;28;20509;-49
2023/03/10 08:43:49;;;;;;;8.40;5.13;;;;;;;20.92;47.88;99256.13;5052814;28;20056;-52
2023/03/10 08:46:18;;;;;;;8.80;5.63;;;;;;;20.93;47.91;99256.97;5052446;28;20049;-52
2023/03/10 08:48:45;;;;;;;8.82;4.68;;;;;;;20.93;47.86;99257.81;5052778;28;20060;-50
2023/03/10 08:51:13;;;;;;;6.85;4.80;;;;;;;20.94;47.86;99258.63;5052822;28;20052;-52
2023/03/10 08:53:45;;;;;;;6.38;5.38;;;;;;;20.94;47.79;99258.63;5052810;28;20044;-50
2023/03/10 08:56:14;;;;;;;6.78;5.47;;;;;;;20.94;47.83;99248.75;5052696;28;20056;-46
2023/03/10 08:58:42;;;;;;;7.45;4.50;;;;;;;20.97;47.81;99266.34;5052560;28;20057;-46
2023/03/10 09:01:11;;;;;;;6.90;4.50;;;;;;;20.97;47.92;99258.28;5055422;28;20049;-47
2023/03/10 09:03:41;;;;;;;8.50;5.30;;;;;;;20.97;47.73;99248.34;5057141;28;20044;-47
2023/03/10 09:06:08;;;;;;;10.93;4.55;;;;;;;20.98;47.78;99244.66;5056739;28;20045;-47
2023/03/10 09:08:36;;;;;;;8.77;5.18;;;;;;;20.98;47.81;99247.38;5056811;28;20049;-51
2023/03/10 09:11:04;;;;;;;7.47;4.70;;;;;;;20.97;47.74;99247.53;5056955;28;20045;-50
2023/03/10 09:13:31;;;;;;;7.80;4.50;;;;;;;20.97;47.91;99244.84;5056471;28;20052;-51
2023/03/10 09:15:59;;;;;;;8.77;5.28;;;;;;;20.98;47.76;99244.66;5056538;28;20056;-49
2023/03/10 09:18:27;;;;;;;8.43;4.45;;;;;;;20.98;47.82;99228.53;5056418;28;20071;-49
2023/03/10 09:20:54;;;;;;;5.38;4.20;;;;;;;20.99;47.90;99232.06;5056716;28;20521;-50
2023/03/10 09:23:22;;;;;;;8.30;4.32;;;;;;;21.00;47.82;99239.09;5056604;28;20045;-49
2023/03/10 09:25:49;;;;;;;10.70;7.15;;;;;;;20.99;47.57;99229.38;5056714;28;20037;-46
2023/03/10 09:28:16;;;;;;;8.02;6.15;;;;;;;20.99;47.57;99224.81;5056566;28;20045;-48
2023/03/10 09:30:46;;;;;;;7.43;5.13;;;;;;;20.98;47.67;99227.66;5056714;28;20045;-48
2023/03/10 09:33:17;;;;;;;8.25;4.60;;;;;;;20.98;47.84;99227.66;5056684;28;20049;-48
2023/03/10 09:35:44;;;;;;;9.60;5.15;;;;;;;20.99;47.79;99223.97;5056475;28;20483;-49
2023/03/10 09:38:29;;;;;;;7.18;4.05;;;;;;;20.99;47.73;99223.97;5056389;28;20410;-47
2023/03/10 09:41:17;;;;;;;7.47;4.65;;;;;;;21.01;47.80;99224.63;5056389;28;20056;-47
2023/03/10 09:43:59;;;;;;;5.53;4.13;;;;;;;21.01;47.80;99221.09;5056581;28;20045;-46
2023/03/10 09:46:44;;;;;;;5.53;4.10;;;;;;;21.02;47.76;99217.38;5056462;28;20064;-48
2023/03/10 09:49:29;;;;;;;6.80;4.47;;;;;;;21.03;47.71;99211.00;5056379;28;20056;-47
2023/03/10 09:51:57;;;;;;;5.93;4.20;;;;;;;21.03;47.84;99211.84;5056297;28;20076;-47
2023/03/10 09:54:32;;;;;;;6.03;4.30;;;;;;;21.04;47.88;99209.97;5055049;28;20514;-48
2023/03/10 09:57:00;;;;;;;6.82;3.95;;;;;;;21.04;47.90;99193.84;5056107;28;20041;-50
2023/03/10 09:59:35;;;;;;;4.90;3.60;;;;;;;21.04;47.80;99188.47;5055666;28;20049;-47
2023/03/10 10:02:16;;;;;;;8.57;4.00;;;;;;;21.05;47.83;99182.03;5056098;28;20045;-47
2023/03/10 10:04:47;;;;;;;6.32;4.05;;;;;;;21.04;47.86;99183.91;5056238;28;20045;-46
2023/03/10 10:07:21;;;;;;;7.65;3.80;;;;;;;21.05;47.76;99190.94;5056278;28;20045;-48
2023/03/10 10:10:12;;;;;;;4.43;3.40;;;;;;;21.06;47.89;99181.84;5055863;28;20052;-47
2023/03/10 10:12:42;;;;;;;7.47;4.05;;;;;;;21.06;48.00;99186.41;5054149;28;20044;-48
2023/03/10 10:15:16;;;;;;;5.80;3.90;;;;;;;21.06;48.00;99184.53;5055601;28;20049;-47
2023/03/10 10:17:53;;;;;;;5.85;3.70;;;;;;;21.06;47.95;99176.47;5055695;28;20487;-47
2023/03/10 10:20:39;;;;;;;5.20;3.60;;;;;;;21.06;48.12;99181.84;5055678;28;20056;-47
2023/03/10 10:23:28;;;;;;;6.25;3.95;;;;;;;21.06;48.02;99187.22;5055450;28;20057;-48
2023/03/10 10:26:08;;;;;;;5.25;3.47;;;;;;;21.07;48.21;99178.16;5055513;28;20044;-48
2023/03/10 10:28:40;;;;;;;5.65;3.20;;;;;;;21.07;48.02;99177.34;5055539;28;20053;-48
2023/03/10 10:31:16;;;;;;;4.35;3.20;;;;;;;21.07;48.22;99175.47;5055660;28;20075;-48
2023/03/10 10:34:00;;;;;;;6.25;3.85;;;;;;;21.07;47.99;99171.94;5055726;28;20147;-50
2023/03/10 10:36:31;;;;;;;5.20;3.50;;;;;;;21.07;48.18;99171.94;5055366;28;20383;-47
2023/03/10 10:38:59;;;;;;;6.28;3.70;;;;;;;21.07;48.14;99161.19;5054328;28;20518;-47
2023/03/10 10:41:30;;;;;;;6.35;3.35;;;;;;;21.08;48.16;99173.63;5055114;28;20049;-48
2023/03/10 10:44:05;;;;;;;4.75;3.17;;;;;;;21.08;48.25;99160.16;5054933;28;20041;-48
2023/03/10 10:46:33;;;;;;;5.60;3.25;;;;;;;21.08;48.19;99163.69;5055229;28;20037;-46
2023/03/10 10:49:18;;;;;;;5.40;2.90;;;;;;;21.07;48.21;99159.34;5055060;28;20044;-48
2023/03/10 10:52:03;;;;;;;8.32;2.92;;;;;;;21.08;48.26;99162.84;5055005;28;20044;-51
2023/03/10 10:54:39;;;;;;;4.45;2.70;;;;;;;21.10;48.12;99160.81;5054832;28;20049;-47
2023/03/10 10:57:31;;;;;;;4.45;2.65;;;;;;;21.07;47.73;99162.03;5054695;28;20075;-47
2023/03/10 11:00:24;;;;;;;3.55;2.60;;;;;;;21.08;48.15;99162.84;5054802;28;20052;-48
2023/03/10 11:02:52;;;;;;;4.03;2.40;;;;;;;21.08;47.97;99165.53;5053545;28;20053;-47
2023/03/10 11:05:30;;;;;;;4.35;2.22;;;;;;;21.08;47.92;99161.00;5055079;28;20053;-47
2023/03/10 11:08:26;;;;;;;4.20;2.42;;;;;;;21.09;47.94;99164.53;5054546;28;20048;-47
2023/03/10 11:11:17;;;;;;;4.30;3.00;;;;;;;21.09;48.02;99165.34;5054412;28;20057;-49
2023/03/10 11:14:04;;;;;;;5.88;3.00;;;;;;;21.09;47.91;99159.97;5054735;28;20041;-50
2023/03/10 11:16:50;;;;;;;5.40;2.70;;;;;;;21.10;47.85;99166.19;5054442;28;20045;-47
2023/03/10 11:19:29;;;;;;;4.50;3.00;;;;;;;21.10;47.77;99161.63;5054686;28;20049;-48
2023/03/10 11:22:11;;;;;;;4.22;2.88;;;;;;;21.10;47.82;99160.81;5054198;28;20052;-49
2023/03/10 11:24:49;;;;;;;5.47;2.80;;;;;;;21.09;47.71;99165.34;5054085;28;20049;-48
2023/03/10 11:27:26;;;;;;;4.85;2.45;;;;;;;21.10;47.62;99161.63;5054340;28;20052;-48
2023/03/10 11:29:56;;;;;;;4.65;2.78;;;;;;;21.10;47.56;99161.63;5054249;28;20053;-49
2023/03/10 11:32:50;;;;;;;3.95;2.28;;;;;;;21.10;47.42;99177.78;5052932;28;20057;-53
2023/03/10 11:35:26;;;;;;;;;;;;;;;21.11;47.31;99176.78;5054621;28;20068;-48
2023/03/10 11:38:05;;;;;;;4.10;2.70;;;;;;;21.11;47.52;99159.81;5054118;28;19928;-46
2023/03/10 11:40:46;;;;;;;6.10;2.75;;;;;;;21.10;47.62;99158.94;5054083;28;20506;-46
2023/03/10 11:43:28;;;;;;;3.83;2.15;;;;;;;21.11;47.70;99166.03;5054042;28;20045;-48
2023/03/10 11:46:00;;;;;;;5.15;2.60;;;;;;;21.12;47.30;99169.53;5054108;28;20057;-46
2023/03/10 11:48:31;;;;;;;5.37;2.50;;;;;;;21.11;47.22;99167.88;5052823;28;20051;-47
2023/03/10 11:51:02;;;;;;;6.43;2.42;;;;;;;21.10;47.31;99161.63;5054067;28;20387;-47
2023/03/10 11:53:41;;;;;;;5.03;2.42;;;;;;;21.10;47.20;99150.88;5053883;28;20052;-47